createdAt,value
2019-03-22T00:00:00.682Z,787.72
2019-03-22T00:00:04.991Z,787.73
2019-03-22T00:00:09.287Z,787.74
2019-03-22T00:00:13.645Z,787.74
2019-03-22T00:00:17.938Z,787.73
2019-03-22T00:00:22.236Z,787.75
2019-03-22T00:00:26.525Z,787.76
2019-03-22T00:00:30.818Z,787.73
2019-03-22T00:00:35.029Z,787.77
2019-03-22T00:00:39.332Z,787.74
2019-03-22T00:00:43.629Z,787.72
2019-03-22T00:00:47.927Z,787.72
2019-03-22T00:00:52.253Z,787.73
2019-03-22T00:00:56.555Z,787.64
2019-03-22T00:01:00.894Z,787.67
2019-03-22T00:01:05.091Z,787.69
2019-03-22T00:01:09.377Z,787.71
2019-03-22T00:01:13.672Z,787.72
2019-03-22T00:01:17.971Z,787.62
2019-03-22T00:01:22.286Z,787.67
2019-03-22T00:01:26.581Z,787.68
2019-03-22T00:01:30.936Z,787.67
2019-03-22T00:01:35.235Z,787.66
2019-03-22T00:01:39.529Z,787.66
2019-03-22T00:01:43.820Z,787.61
2019-03-22T00:01:48.180Z,787.66
2019-03-22T00:01:52.482Z,787.67
2019-03-22T00:01:56.775Z,787.68
2019-03-22T00:02:01.070Z,787.64
2019-03-22T00:02:05.266Z,787.6
2019-03-22T00:02:09.558Z,787.58
2019-03-22T00:02:13.847Z,787.58
2019-03-22T00:02:18.138Z,787.62
2019-03-22T00:02:22.439Z,787.6
2019-03-22T00:02:26.727Z,787.62
2019-03-22T00:02:30.916Z,787.6
2019-03-22T00:02:35.278Z,787.53
2019-03-22T00:02:39.575Z,787.53
2019-03-22T00:02:43.788Z,787.54
2019-03-22T00:02:48.080Z,787.59
2019-03-22T00:02:52.375Z,787.6
2019-03-22T00:02:56.729Z,787.53
2019-03-22T00:03:01.036Z,787.57
2019-03-22T00:03:05.345Z,787.52
2019-03-22T00:03:09.649Z,787.5
2019-03-22T00:03:13.850Z,787.53
2019-03-22T00:03:18.053Z,787.51
2019-03-22T00:03:22.339Z,787.54
2019-03-22T00:03:26.640Z,787.52
2019-03-22T00:03:30.943Z,787.54
2019-03-22T00:03:35.144Z,787.48
2019-03-22T00:03:39.437Z,787.49
2019-03-22T00:03:43.646Z,787.5
2019-03-22T00:03:47.939Z,787.45
2019-03-22T00:03:52.237Z,787.47
2019-03-22T00:03:56.529Z,787.41
2019-03-22T00:04:00.832Z,787.43
2019-03-22T00:04:05.030Z,787.43
2019-03-22T00:04:09.324Z,787.46
2019-03-22T00:04:13.616Z,787.44
2019-03-22T00:04:17.815Z,787.42
2019-03-22T00:04:22.182Z,787.4
2019-03-22T00:04:26.487Z,787.41
2019-03-22T00:04:30.784Z,787.42
2019-03-22T00:04:35.082Z,787.39
2019-03-22T00:04:39.377Z,787.42
2019-03-22T00:04:43.566Z,787.43
2019-03-22T00:04:47.856Z,787.42
2019-03-22T00:04:52.146Z,787.39
2019-03-22T00:04:56.436Z,787.4
2019-03-22T00:05:00.731Z,787.39
2019-03-22T00:05:05.031Z,787.38
2019-03-22T00:05:09.319Z,787.35
2019-03-22T00:05:13.616Z,787.36
2019-03-22T00:05:17.912Z,787.33
2019-03-22T00:05:22.208Z,787.35
2019-03-22T00:05:26.501Z,787.36
2019-03-22T00:05:30.862Z,787.33
2019-03-22T00:05:34.986Z,787.33
2019-03-22T00:05:39.284Z,787.32
2019-03-22T00:05:43.575Z,787.35
2019-03-22T00:05:47.865Z,787.29
2019-03-22T00:05:52.055Z,787.3
2019-03-22T00:05:56.244Z,787.27
2019-03-22T00:06:00.550Z,787.28
2019-03-22T00:06:04.841Z,787.24
2019-03-22T00:06:09.139Z,787.23
2019-03-22T00:06:13.428Z,787.22
2019-03-22T00:06:17.718Z,787.27
2019-03-22T00:06:21.910Z,787.26
2019-03-22T00:06:26.204Z,787.23
2019-03-22T00:06:30.506Z,787.24
2019-03-22T00:06:34.701Z,787.19
2019-03-22T00:06:39.000Z,787.16
2019-03-22T00:06:43.300Z,787.12
2019-03-22T00:06:47.610Z,787.19
2019-03-22T00:06:51.907Z,787.17
2019-03-22T00:06:56.195Z,787.17
2019-03-22T00:07:00.488Z,787.15
2019-03-22T00:07:04.855Z,787.13
2019-03-22T00:07:09.167Z,787.14
2019-03-22T00:07:13.464Z,787.14
2019-03-22T00:07:17.760Z,787.14
2019-03-22T00:07:22.042Z,787.1
2019-03-22T00:07:26.235Z,787.12
2019-03-22T00:07:30.519Z,787.08
2019-03-22T00:07:34.820Z,787.07
2019-03-22T00:07:39.110Z,787.01
2019-03-22T00:07:43.424Z,787.1
2019-03-22T00:07:50.191Z,787.07
2019-03-22T00:07:54.398Z,787.08
2019-03-22T00:07:58.597Z,787.04
2019-03-22T00:08:02.897Z,787.05
2019-03-22T00:08:07.192Z,787.06
2019-03-22T00:08:11.545Z,787.07
2019-03-22T00:08:15.843Z,786.98
2019-03-22T00:08:20.146Z,786.98
2019-03-22T00:08:24.514Z,786.96
2019-03-22T00:08:28.836Z,786.94
2019-03-22T00:08:33.143Z,786.91
2019-03-22T00:08:37.429Z,786.94
2019-03-22T00:08:41.720Z,786.92
2019-03-22T00:08:46.030Z,786.91
2019-03-22T00:08:50.320Z,786.95
2019-03-22T00:08:54.632Z,786.88
2019-03-22T00:08:58.925Z,786.93
2019-03-22T00:09:03.074Z,786.88
2019-03-22T00:09:07.379Z,786.89
2019-03-22T00:09:11.745Z,786.84
2019-03-22T00:09:16.039Z,786.84
2019-03-22T00:09:20.332Z,786.83
2019-03-22T00:09:24.620Z,786.88
2019-03-22T00:09:28.920Z,786.84
2019-03-22T00:09:33.218Z,786.83
2019-03-22T00:09:37.519Z,786.83
2019-03-22T00:09:41.822Z,786.77
2019-03-22T00:09:46.118Z,786.78
2019-03-22T00:09:50.412Z,786.74
2019-03-22T00:09:54.716Z,786.78
2019-03-22T00:09:59.017Z,786.7
2019-03-22T00:10:03.321Z,786.73
2019-03-22T00:10:07.627Z,786.74
2019-03-22T00:10:11.923Z,786.67
2019-03-22T00:10:16.218Z,786.68
2019-03-22T00:10:20.519Z,786.74
2019-03-22T00:10:24.831Z,786.71
2019-03-22T00:10:29.122Z,786.69
2019-03-22T00:10:33.256Z,786.71
2019-03-22T00:10:37.558Z,786.68
2019-03-22T00:10:41.864Z,786.66
2019-03-22T00:10:46.164Z,786.65
2019-03-22T00:10:50.481Z,786.67
2019-03-22T00:10:54.773Z,786.67
2019-03-22T00:10:59.066Z,786.64
2019-03-22T00:11:03.480Z,786.63
2019-03-22T00:11:07.775Z,786.61
2019-03-22T00:11:11.969Z,786.59
2019-03-22T00:11:16.168Z,786.61
2019-03-22T00:11:20.362Z,786.59
2019-03-22T00:11:24.658Z,786.6
2019-03-22T00:11:29.014Z,786.6
2019-03-22T00:11:33.304Z,786.58
2019-03-22T00:11:37.660Z,786.55
2019-03-22T00:11:41.956Z,786.57
2019-03-22T00:11:46.249Z,786.56
2019-03-22T00:11:50.538Z,786.56
2019-03-22T00:11:54.843Z,786.54
2019-03-22T00:11:59.138Z,786.53
2019-03-22T00:12:05.756Z,786.52
2019-03-22T00:12:10.061Z,786.52
2019-03-22T00:12:14.357Z,786.47
2019-03-22T00:12:18.659Z,786.49
2019-03-22T00:12:22.970Z,786.52
2019-03-22T00:12:27.264Z,786.5
2019-03-22T00:12:31.562Z,786.5
2019-03-22T00:12:35.848Z,786.49
2019-03-22T00:12:40.138Z,786.51
2019-03-22T00:12:44.431Z,786.5
2019-03-22T00:12:48.744Z,786.47
2019-03-22T00:12:53.039Z,786.45
2019-03-22T00:12:57.336Z,786.47
2019-03-22T00:13:01.645Z,786.45
2019-03-22T00:13:05.936Z,786.42
2019-03-22T00:13:10.133Z,786.43
2019-03-22T00:13:14.336Z,786.44
2019-03-22T00:13:18.533Z,786.41
2019-03-22T00:13:22.834Z,786.48
2019-03-22T00:13:27.131Z,786.41
2019-03-22T00:13:31.422Z,786.42
2019-03-22T00:13:35.721Z,786.42
2019-03-22T00:13:40.085Z,786.38
2019-03-22T00:13:44.389Z,786.4
2019-03-22T00:13:48.585Z,786.4
2019-03-22T00:13:52.787Z,786.41
2019-03-22T00:13:57.097Z,786.38
2019-03-22T00:14:01.384Z,786.37
2019-03-22T00:14:05.586Z,786.37
2019-03-22T00:14:09.879Z,786.37
2019-03-22T00:14:14.184Z,786.39
2019-03-22T00:14:18.389Z,786.36
2019-03-22T00:14:22.684Z,786.35
2019-03-22T00:14:26.985Z,786.35
2019-03-22T00:14:31.289Z,786.31
2019-03-22T00:14:37.872Z,786.31
2019-03-22T00:14:42.175Z,786.35
2019-03-22T00:14:46.477Z,786.33
2019-03-22T00:14:50.830Z,786.34
2019-03-22T00:14:55.124Z,786.31
2019-03-22T00:14:59.327Z,786.29
2019-03-22T00:15:03.639Z,786.3
2019-03-22T00:15:07.939Z,786.33
2019-03-22T00:15:12.255Z,786.28
2019-03-22T00:15:16.596Z,786.29
2019-03-22T00:15:20.905Z,786.28
2019-03-22T00:15:25.211Z,786.26
2019-03-22T00:15:29.511Z,786.29
2019-03-22T00:15:33.814Z,786.26
2019-03-22T00:15:38.101Z,786.3
2019-03-22T00:15:42.393Z,786.28
2019-03-22T00:15:46.589Z,786.26
2019-03-22T00:15:50.894Z,786.26
2019-03-22T00:15:55.105Z,786.27
2019-03-22T00:15:59.404Z,786.25
2019-03-22T00:16:03.706Z,786.23
2019-03-22T00:16:07.998Z,786.22
2019-03-22T00:16:12.297Z,786.24
2019-03-22T00:16:16.596Z,786.23
2019-03-22T00:16:20.889Z,786.21
2019-03-22T00:16:25.178Z,786.24
2019-03-22T00:16:29.471Z,786.17
2019-03-22T00:16:33.763Z,786.19
2019-03-22T00:16:38.055Z,786.18
2019-03-22T00:16:42.418Z,786.18
2019-03-22T00:16:46.706Z,786.19
2019-03-22T00:16:51.007Z,786.2
2019-03-22T00:16:55.302Z,786.17
2019-03-22T00:16:59.634Z,786.2
2019-03-22T00:17:03.936Z,786.2
2019-03-22T00:17:08.287Z,786.19
2019-03-22T00:17:12.596Z,786.21
2019-03-22T00:17:16.895Z,786.19
2019-03-22T00:17:21.187Z,786.19
2019-03-22T00:17:25.379Z,786.2
2019-03-22T00:17:29.730Z,786.18
2019-03-22T00:17:34.028Z,786.17
2019-03-22T00:17:38.230Z,786.13
2019-03-22T00:17:42.435Z,786.1
2019-03-22T00:17:46.736Z,786.12
2019-03-22T00:17:51.048Z,786.16
2019-03-22T00:17:55.347Z,786.13
2019-03-22T00:17:59.545Z,786.16
2019-03-22T00:18:03.836Z,786.13
2019-03-22T00:18:08.134Z,786.14
2019-03-22T00:18:12.425Z,786.12
2019-03-22T00:18:16.719Z,786.11
2019-03-22T00:18:21.014Z,786.1
2019-03-22T00:18:25.319Z,786.09
2019-03-22T00:18:29.611Z,786.07
2019-03-22T00:18:33.917Z,786.07
2019-03-22T00:18:38.108Z,786.09
2019-03-22T00:18:42.402Z,786.06
2019-03-22T00:18:46.690Z,786.06
2019-03-22T00:18:50.881Z,786.06
2019-03-22T00:18:55.169Z,786.06
2019-03-22T00:18:59.489Z,786.05
2019-03-22T00:19:03.732Z,786.06
2019-03-22T00:19:08.034Z,786.06
2019-03-22T00:19:12.342Z,786.06
2019-03-22T00:19:16.639Z,786.03
2019-03-22T00:19:20.835Z,786.02
2019-03-22T00:19:25.125Z,786.04
2019-03-22T00:19:29.424Z,786.04
2019-03-22T00:19:33.717Z,786.07
2019-03-22T00:19:38.000Z,786.06
2019-03-22T00:19:42.296Z,786.01
2019-03-22T00:19:46.650Z,785.98
2019-03-22T00:19:50.936Z,786.02
2019-03-22T00:19:55.234Z,786.01
2019-03-22T00:19:59.550Z,786
2019-03-22T00:20:04.043Z,786
2019-03-22T00:20:08.239Z,786
2019-03-22T00:20:12.545Z,785.99
2019-03-22T00:20:16.899Z,786.02
2019-03-22T00:20:21.100Z,786
2019-03-22T00:20:25.298Z,786.01
2019-03-22T00:20:29.665Z,785.97
2019-03-22T00:20:33.960Z,786.01
2019-03-22T00:20:38.251Z,786
2019-03-22T00:20:42.551Z,785.95
2019-03-22T00:20:46.845Z,785.95
2019-03-22T00:20:51.035Z,785.89
2019-03-22T00:20:55.242Z,785.95
2019-03-22T00:20:59.546Z,785.95
2019-03-22T00:21:03.874Z,785.96
2019-03-22T00:21:08.167Z,785.96
2019-03-22T00:21:12.464Z,785.94
2019-03-22T00:21:16.768Z,785.89
2019-03-22T00:21:21.082Z,785.93
2019-03-22T00:21:25.293Z,785.94
2019-03-22T00:21:29.399Z,785.89
2019-03-22T00:21:33.687Z,785.85
2019-03-22T00:21:37.982Z,785.86
2019-03-22T00:21:42.217Z,785.89
2019-03-22T00:21:46.511Z,785.9
2019-03-22T00:21:50.838Z,785.83
2019-03-22T00:21:55.026Z,785.84
2019-03-22T00:21:59.226Z,785.83
2019-03-22T00:22:03.557Z,785.87
2019-03-22T00:22:07.847Z,785.82
2019-03-22T00:22:12.143Z,785.81
2019-03-22T00:22:16.462Z,785.82
2019-03-22T00:22:20.753Z,785.93
2019-03-22T00:22:24.947Z,785.85
2019-03-22T00:22:29.230Z,785.91
2019-03-22T00:22:33.534Z,785.85
2019-03-22T00:22:37.853Z,785.88
2019-03-22T00:22:42.161Z,785.83
2019-03-22T00:22:46.512Z,785.82
2019-03-22T00:22:50.796Z,785.84
2019-03-22T00:22:55.159Z,785.83
2019-03-22T00:22:59.359Z,785.88
2019-03-22T00:23:03.653Z,785.89
2019-03-22T00:23:08.001Z,785.86
2019-03-22T00:23:12.294Z,785.84
2019-03-22T00:23:16.592Z,785.85
2019-03-22T00:23:20.891Z,785.86
2019-03-22T00:23:25.190Z,785.91
2019-03-22T00:23:29.481Z,785.92
2019-03-22T00:23:33.777Z,785.86
2019-03-22T00:23:38.079Z,785.88
2019-03-22T00:23:42.378Z,785.85
2019-03-22T00:23:46.632Z,785.84
2019-03-22T00:23:50.923Z,785.83
2019-03-22T00:23:55.126Z,785.81
2019-03-22T00:23:59.382Z,785.81
2019-03-22T00:24:03.671Z,785.85
2019-03-22T00:24:08.011Z,785.85
2019-03-22T00:24:12.304Z,785.84
2019-03-22T00:24:16.607Z,785.86
2019-03-22T00:24:20.895Z,785.82
2019-03-22T00:24:25.183Z,785.89
2019-03-22T00:24:29.479Z,785.87
2019-03-22T00:24:33.768Z,785.84
2019-03-22T00:24:37.967Z,785.79
2019-03-22T00:24:42.253Z,785.8
2019-03-22T00:24:46.543Z,785.8
2019-03-22T00:24:50.838Z,785.78
2019-03-22T00:24:55.042Z,785.8
2019-03-22T00:24:59.332Z,785.86
2019-03-22T00:25:03.648Z,785.86
2019-03-22T00:25:07.950Z,785.85
2019-03-22T00:25:12.247Z,785.88
2019-03-22T00:25:16.445Z,785.83
2019-03-22T00:25:20.732Z,785.81
2019-03-22T00:25:24.923Z,785.86
2019-03-22T00:25:29.119Z,785.86
2019-03-22T00:25:33.417Z,785.87
2019-03-22T00:25:37.710Z,785.82
2019-03-22T00:25:41.913Z,785.82
2019-03-22T00:25:46.207Z,785.86
2019-03-22T00:25:50.495Z,785.89
2019-03-22T00:25:54.783Z,785.86
2019-03-22T00:25:59.080Z,785.85
2019-03-22T00:26:03.421Z,785.91
2019-03-22T00:26:07.710Z,785.84
2019-03-22T00:26:12.064Z,785.84
2019-03-22T00:26:16.365Z,785.85
2019-03-22T00:26:20.672Z,785.86
2019-03-22T00:26:24.965Z,785.84
2019-03-22T00:26:29.260Z,785.84
2019-03-22T00:26:36.196Z,785.83
2019-03-22T00:26:40.486Z,785.81
2019-03-22T00:26:44.789Z,785.88
2019-03-22T00:26:49.095Z,785.88
2019-03-22T00:26:53.321Z,785.9
2019-03-22T00:26:57.616Z,785.85
2019-03-22T00:27:01.930Z,785.8
2019-03-22T00:27:18.508Z,785.81
2019-03-22T00:27:22.701Z,785.81
2019-03-22T00:27:26.993Z,785.81
2019-03-22T00:27:31.281Z,785.83
2019-03-22T00:27:35.573Z,785.79
2019-03-22T00:27:39.774Z,785.79
2019-03-22T00:27:44.136Z,785.83
2019-03-22T00:27:48.433Z,785.83
2019-03-22T00:27:52.734Z,785.79
2019-03-22T00:27:57.030Z,785.76
2019-03-22T00:28:01.224Z,785.79
2019-03-22T00:28:05.516Z,785.81
2019-03-22T00:28:09.809Z,785.78
2019-03-22T00:28:14.111Z,785.74
2019-03-22T00:28:18.402Z,785.73
2019-03-22T00:28:22.694Z,785.81
2019-03-22T00:28:26.986Z,785.78
2019-03-22T00:28:31.185Z,785.78
2019-03-22T00:28:35.470Z,785.75
2019-03-22T00:28:39.762Z,785.79
2019-03-22T00:28:44.058Z,785.78
2019-03-22T00:28:48.421Z,785.77
2019-03-22T00:28:52.725Z,785.73
2019-03-22T00:28:57.024Z,785.75
2019-03-22T00:29:01.316Z,785.75
2019-03-22T00:29:05.570Z,785.76
2019-03-22T00:29:09.777Z,785.77
2019-03-22T00:29:14.061Z,785.73
2019-03-22T00:29:18.291Z,785.72
2019-03-22T00:29:22.589Z,785.74
2019-03-22T00:29:26.797Z,785.74
2019-03-22T00:29:30.797Z,785.74
2019-03-22T00:29:34.997Z,785.72
2019-03-22T00:29:39.289Z,785.68
2019-03-22T00:29:43.585Z,785.71
2019-03-22T00:29:47.894Z,785.72
2019-03-22T00:29:52.235Z,785.72
2019-03-22T00:29:56.536Z,785.69
2019-03-22T00:30:01.128Z,785.71
2019-03-22T00:30:05.425Z,785.69
2019-03-22T00:30:09.727Z,785.69
2019-03-22T00:30:14.017Z,785.67
2019-03-22T00:30:18.323Z,785.7
2019-03-22T00:30:22.517Z,785.68
2019-03-22T00:30:26.805Z,785.67
2019-03-22T00:30:31.097Z,785.67
2019-03-22T00:30:35.390Z,785.68
2019-03-22T00:30:39.695Z,785.7
2019-03-22T00:30:43.985Z,785.67
2019-03-22T00:30:48.273Z,785.67
2019-03-22T00:30:52.468Z,785.68
2019-03-22T00:30:56.760Z,785.64
2019-03-22T00:31:01.062Z,785.64
2019-03-22T00:31:05.381Z,785.63
2019-03-22T00:31:09.671Z,785.66
2019-03-22T00:31:13.958Z,785.63
2019-03-22T00:31:18.251Z,785.61
2019-03-22T00:31:22.546Z,785.61
2019-03-22T00:31:26.839Z,785.64
2019-03-22T00:31:31.138Z,785.61
2019-03-22T00:31:35.432Z,785.59
2019-03-22T00:31:39.722Z,785.59
2019-03-22T00:31:44.029Z,785.61
2019-03-22T00:31:48.324Z,785.52
2019-03-22T00:31:52.612Z,785.55
2019-03-22T00:31:56.962Z,785.56
2019-03-22T00:32:01.254Z,785.52
2019-03-22T00:32:05.763Z,785.6
2019-03-22T00:32:10.054Z,785.51
2019-03-22T00:32:14.342Z,785.56
2019-03-22T00:32:18.638Z,785.51
2019-03-22T00:32:22.840Z,785.53
2019-03-22T00:32:27.154Z,785.53
2019-03-22T00:32:31.347Z,785.52
2019-03-22T00:32:35.651Z,785.47
2019-03-22T00:32:39.854Z,785.49
2019-03-22T00:32:44.217Z,785.49
2019-03-22T00:32:48.519Z,785.46
2019-03-22T00:32:55.561Z,785.41
2019-03-22T00:32:59.758Z,785.42
2019-03-22T00:33:04.084Z,785.46
2019-03-22T00:33:08.387Z,785.42
2019-03-22T00:33:12.690Z,785.42
2019-03-22T00:33:16.990Z,785.48
2019-03-22T00:33:21.287Z,785.44
2019-03-22T00:33:25.584Z,785.39
2019-03-22T00:33:29.775Z,785.39
2019-03-22T00:33:34.072Z,785.38
2019-03-22T00:33:38.443Z,785.4
2019-03-22T00:33:42.641Z,785.42
2019-03-22T00:33:46.933Z,785.42
2019-03-22T00:33:51.166Z,785.42
2019-03-22T00:33:55.365Z,785.37
2019-03-22T00:33:59.662Z,785.35
2019-03-22T00:34:03.858Z,785.39
2019-03-22T00:34:08.151Z,785.4
2019-03-22T00:34:12.362Z,785.39
2019-03-22T00:34:16.652Z,785.38
2019-03-22T00:34:20.941Z,785.33
2019-03-22T00:34:25.139Z,785.37
2019-03-22T00:34:29.443Z,785.33
2019-03-22T00:34:33.733Z,785.38
2019-03-22T00:34:38.022Z,785.36
2019-03-22T00:34:42.319Z,785.33
2019-03-22T00:34:46.607Z,785.31
2019-03-22T00:34:50.901Z,785.31
2019-03-22T00:34:55.201Z,785.3
2019-03-22T00:34:59.496Z,785.29
2019-03-22T00:35:04.015Z,785.28
2019-03-22T00:35:08.340Z,785.29
2019-03-22T00:35:12.638Z,785.27
2019-03-22T00:35:17.007Z,785.29
2019-03-22T00:35:21.207Z,785.27
2019-03-22T00:35:25.499Z,785.25
2019-03-22T00:35:29.793Z,785.23
2019-03-22T00:35:34.165Z,785.24
2019-03-22T00:35:38.471Z,785.26
2019-03-22T00:35:42.765Z,785.22
2019-03-22T00:35:47.056Z,785.23
2019-03-22T00:35:51.352Z,785.25
2019-03-22T00:35:55.556Z,785.24
2019-03-22T00:35:59.762Z,785.23
2019-03-22T00:36:04.072Z,785.21
2019-03-22T00:36:08.371Z,785.22
2019-03-22T00:36:12.667Z,785.22
2019-03-22T00:36:16.960Z,785.19
2019-03-22T00:36:21.265Z,785.18
2019-03-22T00:36:25.557Z,785.17
2019-03-22T00:36:29.857Z,785.15
2019-03-22T00:36:34.188Z,785.18
2019-03-22T00:36:38.478Z,785.15
2019-03-22T00:36:42.774Z,785.15
2019-03-22T00:36:47.064Z,785.14
2019-03-22T00:36:51.366Z,785.06
2019-03-22T00:36:55.571Z,785.1
2019-03-22T00:36:59.868Z,785.09
2019-03-22T00:37:04.175Z,785.05
2019-03-22T00:37:08.517Z,785.11
2019-03-22T00:37:12.819Z,785.08
2019-03-22T00:37:17.126Z,785.09
2019-03-22T00:37:21.414Z,785.04
2019-03-22T00:37:25.607Z,785.08
2019-03-22T00:37:29.894Z,785.1
2019-03-22T00:37:34.193Z,785.1
2019-03-22T00:37:38.487Z,785.09
2019-03-22T00:37:42.687Z,785.05
2019-03-22T00:37:46.973Z,785.02
2019-03-22T00:37:51.168Z,785.01
2019-03-22T00:37:55.465Z,785.06
2019-03-22T00:37:59.769Z,785.04
2019-03-22T00:38:04.063Z,785.01
2019-03-22T00:38:08.366Z,784.96
2019-03-22T00:38:12.654Z,785.04
2019-03-22T00:38:16.944Z,785.04
2019-03-22T00:38:21.244Z,785
2019-03-22T00:38:25.437Z,785.04
2019-03-22T00:38:29.722Z,785
2019-03-22T00:38:34.007Z,785.02
2019-03-22T00:38:38.367Z,785.01
2019-03-22T00:38:42.675Z,784.98
2019-03-22T00:38:46.869Z,785.01
2019-03-22T00:38:51.166Z,784.99
2019-03-22T00:38:55.465Z,784.97
2019-03-22T00:38:59.658Z,784.93
2019-03-22T00:39:03.876Z,785.01
2019-03-22T00:39:08.168Z,784.93
2019-03-22T00:39:12.459Z,784.92
2019-03-22T00:39:16.661Z,784.91
2019-03-22T00:39:20.951Z,784.98
2019-03-22T00:39:25.247Z,784.96
2019-03-22T00:39:29.542Z,784.93
2019-03-22T00:39:33.829Z,784.95
2019-03-22T00:39:38.129Z,784.97
2019-03-22T00:39:42.440Z,784.95
2019-03-22T00:39:46.734Z,784.95
2019-03-22T00:39:51.052Z,784.91
2019-03-22T00:39:55.350Z,784.92
2019-03-22T00:39:59.651Z,784.92
2019-03-22T00:40:04.159Z,784.9
2019-03-22T00:40:08.381Z,784.9
2019-03-22T00:40:12.669Z,784.87
2019-03-22T00:40:17.037Z,784.9
2019-03-22T00:40:21.226Z,784.91
2019-03-22T00:40:25.542Z,784.89
2019-03-22T00:40:29.846Z,784.88
2019-03-22T00:40:34.086Z,784.87
2019-03-22T00:40:38.380Z,784.86
2019-03-22T00:40:42.670Z,784.9
2019-03-22T00:40:46.961Z,784.86
2019-03-22T00:40:51.257Z,784.86
2019-03-22T00:40:55.554Z,784.88
2019-03-22T00:40:59.746Z,784.89
2019-03-22T00:41:04.048Z,784.89
2019-03-22T00:41:08.336Z,784.86
2019-03-22T00:41:12.627Z,784.86
2019-03-22T00:41:16.820Z,784.87
2019-03-22T00:41:21.106Z,784.84
2019-03-22T00:41:25.314Z,784.86
2019-03-22T00:41:29.505Z,784.89
2019-03-22T00:41:33.804Z,784.86
2019-03-22T00:41:38.064Z,784.85
2019-03-22T00:41:42.351Z,784.88
2019-03-22T00:41:46.652Z,784.86
2019-03-22T00:41:50.959Z,784.86
2019-03-22T00:41:55.157Z,784.85
2019-03-22T00:41:59.445Z,784.87
2019-03-22T00:42:03.647Z,784.86
2019-03-22T00:42:07.940Z,784.84
2019-03-22T00:42:12.229Z,784.86
2019-03-22T00:42:16.529Z,784.87
2019-03-22T00:42:20.825Z,784.86
2019-03-22T00:42:24.916Z,784.86
2019-03-22T00:42:29.206Z,784.86
2019-03-22T00:42:33.498Z,784.87
2019-03-22T00:42:37.700Z,784.92
2019-03-22T00:42:42.006Z,784.89
2019-03-22T00:42:46.343Z,784.84
2019-03-22T00:42:50.539Z,784.91
2019-03-22T00:42:54.823Z,784.88
2019-03-22T00:42:59.118Z,784.88
2019-03-22T00:43:03.418Z,784.89
2019-03-22T00:43:07.625Z,784.86
2019-03-22T00:43:11.919Z,784.84
2019-03-22T00:43:16.215Z,784.86
2019-03-22T00:43:20.514Z,784.91
2019-03-22T00:43:24.819Z,784.9
2019-03-22T00:43:29.121Z,784.9
2019-03-22T00:43:33.410Z,784.93
2019-03-22T00:43:37.706Z,784.93
2019-03-22T00:43:41.998Z,784.93
2019-03-22T00:43:46.298Z,784.93
2019-03-22T00:43:50.592Z,784.96
2019-03-22T00:43:54.901Z,784.92
2019-03-22T00:43:59.194Z,784.97
2019-03-22T00:44:03.494Z,784.94
2019-03-22T00:44:07.791Z,784.97
2019-03-22T00:44:12.073Z,784.95
2019-03-22T00:44:16.274Z,784.96
2019-03-22T00:44:20.571Z,784.96
2019-03-22T00:44:24.866Z,784.95
2019-03-22T00:44:29.156Z,784.99
2019-03-22T00:44:33.456Z,785
2019-03-22T00:44:37.644Z,785.01
2019-03-22T00:44:41.952Z,785.04
2019-03-22T00:44:46.233Z,785.01
2019-03-22T00:44:50.522Z,785.03
2019-03-22T00:44:54.831Z,785.06
2019-03-22T00:44:59.119Z,785.08
2019-03-22T00:45:03.440Z,785.06
2019-03-22T00:45:07.743Z,785.07
2019-03-22T00:45:12.037Z,785.07
2019-03-22T00:45:16.399Z,785.04
2019-03-22T00:45:20.703Z,785.04
2019-03-22T00:45:25.021Z,784.99
2019-03-22T00:45:29.326Z,785.05
2019-03-22T00:45:33.620Z,785.03
2019-03-22T00:45:37.917Z,785.03
2019-03-22T00:45:42.218Z,785.01
2019-03-22T00:45:46.504Z,785.08
2019-03-22T00:45:50.697Z,785.06
2019-03-22T00:45:55.017Z,785.08
2019-03-22T00:45:59.303Z,785.1
2019-03-22T00:46:03.598Z,785.11
2019-03-22T00:46:07.896Z,785.12
2019-03-22T00:46:12.189Z,785.1
2019-03-22T00:46:16.483Z,785.11
2019-03-22T00:46:20.772Z,785.15
2019-03-22T00:46:25.066Z,785.13
2019-03-22T00:46:29.368Z,785.15
2019-03-22T00:46:33.654Z,785.14
2019-03-22T00:46:37.946Z,785.14
2019-03-22T00:46:42.248Z,785.13
2019-03-22T00:46:46.537Z,785.19
2019-03-22T00:46:50.856Z,785.13
2019-03-22T00:46:55.151Z,785.18
2019-03-22T00:46:59.471Z,785.12
2019-03-22T00:47:03.774Z,785.15
2019-03-22T00:47:07.873Z,785.2
2019-03-22T00:47:12.171Z,785.18
2019-03-22T00:47:16.466Z,785.2
2019-03-22T00:47:20.664Z,785.18
2019-03-22T00:47:24.771Z,785.2
2019-03-22T00:47:29.061Z,785.19
2019-03-22T00:47:33.358Z,785.22
2019-03-22T00:47:37.566Z,785.25
2019-03-22T00:47:41.769Z,785.25
2019-03-22T00:47:46.062Z,785.26
2019-03-22T00:47:50.354Z,785.23
2019-03-22T00:47:54.707Z,785.22
2019-03-22T00:47:58.999Z,785.22
2019-03-22T00:48:03.286Z,785.24
2019-03-22T00:48:07.587Z,785.23
2019-03-22T00:48:11.786Z,785.22
2019-03-22T00:48:16.078Z,785.26
2019-03-22T00:48:20.367Z,785.26
2019-03-22T00:48:27.128Z,785.23
2019-03-22T00:48:31.424Z,785.2
2019-03-22T00:48:35.732Z,785.22
2019-03-22T00:48:40.028Z,785.19
2019-03-22T00:48:44.323Z,785.18
2019-03-22T00:48:48.615Z,785.26
2019-03-22T00:48:52.913Z,785.26
2019-03-22T00:48:57.025Z,785.24
2019-03-22T00:49:01.326Z,785.26
2019-03-22T00:49:05.531Z,785.28
2019-03-22T00:49:09.824Z,785.24
2019-03-22T00:49:14.114Z,785.28
2019-03-22T00:49:18.409Z,785.28
2019-03-22T00:49:22.700Z,785.29
2019-03-22T00:49:26.925Z,785.29
2019-03-22T00:49:31.215Z,785.3
2019-03-22T00:49:35.412Z,785.28
2019-03-22T00:49:39.695Z,785.29
2019-03-22T00:49:43.987Z,785.31
2019-03-22T00:49:48.329Z,785.3
2019-03-22T00:49:52.660Z,785.27
2019-03-22T00:49:56.963Z,785.3
2019-03-22T00:50:01.329Z,785.32
2019-03-22T00:50:05.650Z,785.31
2019-03-22T00:50:09.944Z,785.3
2019-03-22T00:50:14.156Z,785.34
2019-03-22T00:50:18.465Z,785.33
2019-03-22T00:50:22.822Z,785.28
2019-03-22T00:50:27.022Z,785.31
2019-03-22T00:50:31.319Z,785.34
2019-03-22T00:50:35.622Z,785.36
2019-03-22T00:50:39.822Z,785.36
2019-03-22T00:50:44.113Z,785.31
2019-03-22T00:50:48.404Z,785.31
2019-03-22T00:50:52.690Z,785.33
2019-03-22T00:50:56.984Z,785.32
2019-03-22T00:51:01.193Z,785.32
2019-03-22T00:51:05.544Z,785.32
2019-03-22T00:51:09.870Z,785.33
2019-03-22T00:51:14.078Z,785.33
2019-03-22T00:51:18.379Z,785.31
2019-03-22T00:51:22.676Z,785.34
2019-03-22T00:51:26.966Z,785.33
2019-03-22T00:51:31.255Z,785.32
2019-03-22T00:51:35.582Z,785.31
2019-03-22T00:51:39.878Z,785.29
2019-03-22T00:51:44.171Z,785.33
2019-03-22T00:51:48.463Z,785.33
2019-03-22T00:51:52.808Z,785.32
2019-03-22T00:51:57.121Z,785.33
2019-03-22T00:52:01.414Z,785.3
2019-03-22T00:52:05.723Z,785.32
2019-03-22T00:52:10.059Z,785.33
2019-03-22T00:52:14.354Z,785.37
2019-03-22T00:52:18.651Z,785.31
2019-03-22T00:52:22.858Z,785.34
2019-03-22T00:52:27.155Z,785.32
2019-03-22T00:52:31.454Z,785.32
2019-03-22T00:52:35.746Z,785.34
2019-03-22T00:52:40.044Z,785.33
2019-03-22T00:52:44.245Z,785.32
2019-03-22T00:52:48.545Z,785.31
2019-03-22T00:52:52.864Z,785.31
2019-03-22T00:52:57.162Z,785.34
2019-03-22T00:53:01.364Z,785.31
2019-03-22T00:53:05.671Z,785.32
2019-03-22T00:53:09.887Z,785.28
2019-03-22T00:53:14.236Z,785.32
2019-03-22T00:53:18.535Z,785.27
2019-03-22T00:53:22.829Z,785.24
2019-03-22T00:53:27.128Z,785.28
2019-03-22T00:53:31.413Z,785.26
2019-03-22T00:53:35.710Z,785.3
2019-03-22T00:53:40.008Z,785.28
2019-03-22T00:53:44.214Z,785.25
2019-03-22T00:53:48.503Z,785.21
2019-03-22T00:53:52.790Z,785.23
2019-03-22T00:53:57.077Z,785.24
2019-03-22T00:54:01.365Z,785.26
2019-03-22T00:54:05.734Z,785.27